SAWH/USH METAR and TAF weather

Enter ICAO airport designator
Station Type Date Time Source
SAWH METAR 2019/06/17 05:00 UTC NOAA

SAWH 170500Z 09006KT 9999 SCT040 BKN070 10/00 Q1007


Station Type Date Time Source
SAWH Decoded METAR 2019/06/17 05:00 UTC NOAA

Ushuaia Aerodrome, Argentina (SAWH) 54-48S 068-19W 14M
Jun 17, 2019 - 01:00 AM EDT / 2019.06.17 0500 UTC
Wind: from the E (090 degrees) at 7 MPH (6 KT):0
Visibility: greater than 7 mile(s):0
Sky conditions: mostly cloudy
Temperature: 50 F (10 C)
Dew Point: 32 F (0 C)
Relative Humidity: 49%
Pressure (altimeter): 29.74 in. Hg (1007 hPa)
ob: SAWH 170500Z 09006KT 9999 SCT040 BKN070 10/00 Q1007
cycle: 5

Station Type Date Time Source
SAWH TAF 2019/06/17 00:07 UTC NOAA

TAF SAWH 162300Z 1700/1724 32010KT 9999 SCT035 OVC090 TX08/1618Z TN02/1712Z PROB40
TEMPO 1704/1712 5000 BR BKN020
BECMG 1715/1717 34010KT 3000 BRDZ SCT010 OVC025

Example: see airport list